»·PEaware :: DCM2612 KBOS-KTVL

DCM2612 :: KBOS-KTVL

FLIGHT INFORMATION

Flight Status: Arrived
Operator: Unknown
More flights by this operator :: More flights under this callsign
Pilot: Henderson P. (1210)
Aircraft: AIRBUS A319
(A319)
More flights by this aircraft type
Origin: KBOS Logan Intl
United States
Destination: KTVL Lake Tahoe
United States
More flights between these airports :: More routes between these airports
Route: HYLND5 HYLND HANAA Q816 HOCKE IDIOM EAU RWF IIP LCU J94 FMG
File this flight plan on PilotEdge
Remarks:
Altitude:
(Current/Filed)
38,000ft
Speed:
(Current/Filed)
468kts
Departed: 28-Oct-18 09:12 AM
Arrived: 28-Oct-18 02:55 PM
Distance/Time
Traveled:
2210nm/5:43
Distance/Time
To Go:
Arrived

Flight Plot

Page will automatically refresh every two minutes.

Flight plan parsing failed; only flown route is shown


Map Options




Map Legend


Flown Route
Filed Route
Departure Airport
Arrival Airport
Navaid (VOR, NDB)
Fix

Horizontal Profiles

Position Reports

Time Latitude Longitude Heading Altitude Ground
Speed
28-Oct-18 08:59 42.372833 -71.021638 266 33ft 0kts
28-Oct-18 09:00 42.372833 -71.021638 266 33ft 0kts
28-Oct-18 09:01 42.372833 -71.021638 266 33ft 0kts
28-Oct-18 09:02 42.372915 -71.021009 232 33ft 2kts
28-Oct-18 09:03 42.373128 -71.021050 135 33ft 0kts
28-Oct-18 09:04 42.373128 -71.021050 135 33ft 0kts
28-Oct-18 09:05 42.373128 -71.021050 135 33ft 0kts
28-Oct-18 09:06 42.373127 -71.021050 135 33ft 0kts
28-Oct-18 09:07 42.373070 -71.020975 135 33ft 0kts
28-Oct-18 09:08 42.372314 -71.019891 117 33ft 8kts
28-Oct-18 09:09 42.371848 -71.016774 135 33ft 13kts
28-Oct-18 09:10 42.369250 -71.012001 71 33ft 18kts
28-Oct-18 09:11 42.374165 -71.008509 20 33ft 21kts
28-Oct-18 09:12 42.378235 -71.005354 110 33ft 11kts
28-Oct-18 09:13 42.377818 -71.004787 202 33ft 0kts
28-Oct-18 09:14 42.356467 -71.014856 198 814ft 154kts
28-Oct-18 09:15 42.317237 -70.981512 129 3230ft 220kts
28-Oct-18 09:16 42.317995 -70.889428 78 6129ft 287kts
28-Oct-18 09:17 42.338264 -70.778870 71 9602ft 316kts
28-Oct-18 09:18 42.419738 -70.721429 4 11774ft 383kts
28-Oct-18 09:19 42.525556 -70.762840 315 13329ft 418kts
28-Oct-18 09:20 42.594519 -70.891127 295 15293ft 429kts
28-Oct-18 09:21 42.661897 -71.029006 295 17430ft 444kts
28-Oct-18 09:22 42.730731 -71.171360 294 19382ft 457kts
28-Oct-18 09:23 42.790668 -71.322966 277 21081ft 448kts
28-Oct-18 09:24 42.820890 -71.489261 276 22625ft 459kts
28-Oct-18 09:25 42.853148 -71.659566 275 23980ft 469kts
28-Oct-18 09:26 42.885244 -71.833266 275 25227ft 473kts
28-Oct-18 09:27 42.916957 -72.006063 274 26846ft 470kts
28-Oct-18 09:28 42.948368 -72.178917 275 28539ft 468kts
28-Oct-18 09:29 42.979525 -72.351609 274 30366ft 465kts
28-Oct-18 09:30 43.010019 -72.522846 273 31983ft 463kts
28-Oct-18 09:31 43.040263 -72.693718 273 33424ft 462kts
28-Oct-18 09:32 43.070114 -72.864457 274 34659ft 461kts
28-Oct-18 09:33 43.099605 -73.034411 274 35780ft 459kts
28-Oct-18 09:34 43.128742 -73.204064 275 36733ft 456kts
28-Oct-18 09:35 43.157432 -73.372683 275 37509ft 455kts
28-Oct-18 09:36 43.186013 -73.542430 275 37791ft 459kts
28-Oct-18 09:37 43.205595 -73.711981 268 37789ft 448kts
28-Oct-18 09:38 43.217831 -73.882325 269 37833ft 449kts
28-Oct-18 09:39 43.230269 -74.053496 269 37837ft 450kts
28-Oct-18 09:40 43.242385 -74.223974 269 37841ft 450kts
28-Oct-18 09:41 43.251820 -74.395174 266 37845ft 448kts
28-Oct-18 09:42 43.256133 -74.565903 266 37844ft 448kts
28-Oct-18 09:43 43.260457 -74.737298 266 37850ft 448kts
28-Oct-18 09:44 43.264430 -74.907850 266 37854ft 448kts
28-Oct-18 09:45 43.268151 -75.078918 266 37859ft 448kts
28-Oct-18 09:46 43.271654 -75.250094 266 37860ft 449kts
28-Oct-18 09:47 43.274883 -75.421167 266 37857ft 449kts
28-Oct-18 09:48 43.277864 -75.593103 266 37861ft 450kts
28-Oct-18 09:49 43.280583 -75.764560 266 37862ft 450kts
28-Oct-18 09:50 43.283071 -75.936734 266 37858ft 451kts
28-Oct-18 09:51 43.285291 -76.108917 267 37861ft 451kts
28-Oct-18 09:52 43.287257 -76.281088 267 37850ft 451kts
28-Oct-18 09:53 43.288957 -76.453236 267 37846ft 451kts
28-Oct-18 09:54 43.290370 -76.625193 267 37850ft 451kts
28-Oct-18 09:55 43.292838 -76.797517 268 37855ft 451kts
28-Oct-18 09:56 43.295331 -76.969734 267 37860ft 451kts
28-Oct-18 09:57 43.297575 -77.141701 267 37862ft 451kts
28-Oct-18 09:58 43.299556 -77.313762 267 37859ft 451kts
28-Oct-18 09:59 43.301240 -77.486378 267 37852ft 452kts
28-Oct-18 10:00 43.302686 -77.658873 267 37846ft 452kts
28-Oct-18 10:01 43.303840 -77.831672 267 37840ft 452kts
28-Oct-18 10:02 43.304785 -78.003950 267 37831ft 453kts
28-Oct-18 10:03 43.304088 -78.176887 265 37831ft 451kts
28-Oct-18 10:04 43.299530 -78.349203 265 37834ft 451kts
28-Oct-18 10:05 43.294846 -78.521078 265 37828ft 450kts
28-Oct-18 10:06 43.289909 -78.693001 265 37831ft 450kts
28-Oct-18 10:07 43.284690 -78.863733 265 37834ft 447kts
28-Oct-18 10:08 43.283451 -79.033957 268 37817ft 446kts
28-Oct-18 10:09 43.285221 -79.204620 267 37747ft 446kts
28-Oct-18 10:10 43.286551 -79.374905 267 37742ft 446kts
28-Oct-18 10:11 43.287623 -79.545082 267 37742ft 447kts
28-Oct-18 10:12 43.288493 -79.715953 267 37768ft 448kts
28-Oct-18 10:13 43.289056 -79.886880 267 37825ft 448kts
28-Oct-18 10:14 43.289396 -80.057828 267 37820ft 449kts
28-Oct-18 10:15 43.289488 -80.229511 267 37809ft 449kts
28-Oct-18 10:16 43.289315 -80.400910 267 37799ft 448kts
28-Oct-18 10:17 43.288902 -80.572034 267 37798ft 448kts
28-Oct-18 10:18 43.288239 -80.742550 267 37801ft 448kts
28-Oct-18 10:19 43.287304 -80.913366 267 37803ft 447kts
28-Oct-18 10:20 43.286121 -81.075812 266 37803ft 447kts
28-Oct-18 10:21 43.284730 -81.246520 266 37801ft 448kts
28-Oct-18 10:22 43.283030 -81.417877 266 37781ft 448kts
28-Oct-18 10:23 43.281137 -81.588979 266 37771ft 449kts
28-Oct-18 10:24 43.278914 -81.760186 266 37769ft 449kts
28-Oct-18 10:25 43.276471 -81.931491 266 37757ft 450kts
28-Oct-18 10:26 43.273755 -82.103117 266 37765ft 450kts
28-Oct-18 10:27 43.270806 -82.274756 266 37765ft 450kts
28-Oct-18 10:28 43.267541 -82.446647 266 37764ft 450kts
28-Oct-18 10:29 43.264056 -82.618132 266 37762ft 450kts
28-Oct-18 10:30 43.280302 -82.787372 286 37753ft 456kts
28-Oct-18 10:31 43.322707 -82.951339 285 37737ft 456kts
28-Oct-18 10:32 43.363336 -83.116561 286 37739ft 456kts
28-Oct-18 10:33 43.404141 -83.281764 285 37734ft 456kts
28-Oct-18 10:34 43.444687 -83.447420 286 37712ft 457kts
28-Oct-18 10:35 43.485097 -83.613846 286 37686ft 458kts
28-Oct-18 10:36 43.525455 -83.780957 286 37659ft 460kts
28-Oct-18 10:37 43.565546 -83.948432 286 37672ft 460kts
28-Oct-18 10:38 43.605434 -84.116310 286 37739ft 460kts
28-Oct-18 10:39 43.645097 -84.284444 286 37736ft 461kts
28-Oct-18 10:40 43.684410 -84.452382 286 37727ft 460kts
28-Oct-18 10:41 43.723571 -84.620782 286 37716ft 458kts
28-Oct-18 10:42 43.762183 -84.788476 286 37709ft 457kts
28-Oct-18 10:43 43.800531 -84.955866 286 37708ft 455kts
28-Oct-18 10:44 43.838339 -85.122541 286 37703ft 454kts
28-Oct-18 10:45 43.875951 -85.289326 286 37684ft 453kts
28-Oct-18 10:46 43.913321 -85.456800 286 37647ft 453kts
28-Oct-18 10:47 43.950279 -85.623221 286 37659ft 453kts
28-Oct-18 10:48 43.987276 -85.791210 286 37636ft 455kts
28-Oct-18 10:49 44.023925 -85.959324 286 37697ft 454kts
28-Oct-18 10:50 44.060389 -86.127364 286 37720ft 455kts
28-Oct-18 10:51 44.096619 -86.296046 286 37720ft 455kts
28-Oct-18 10:53 44.132583 -86.464880 286 37724ft 455kts
28-Oct-18 10:54 44.168387 -86.633979 286 37729ft 454kts
28-Oct-18 10:55 44.203719 -86.802729 286 37735ft 454kts
28-Oct-18 10:56 44.238849 -86.971287 286 37742ft 452kts
28-Oct-18 10:57 44.273356 -87.138872 286 37750ft 450kts
28-Oct-18 10:58 44.307798 -87.306968 286 37753ft 448kts
28-Oct-18 10:59 44.341721 -87.474384 286 37762ft 447kts
28-Oct-18 11:00 44.375280 -87.641115 286 37764ft 445kts
28-Oct-18 11:01 44.408504 -87.807502 286 37741ft 444kts
28-Oct-18 11:02 44.441461 -87.974342 286 37734ft 444kts
28-Oct-18 11:03 44.474143 -88.140787 286 37777ft 441kts
28-Oct-18 11:03 44.500948 -88.278521 286 37729ft 442kts
28-Oct-18 11:05 44.529212 -88.475940 282 37737ft 442kts
28-Oct-18 11:05 44.548388 -88.616876 282 37755ft 442kts
28-Oct-18 11:07 44.574961 -88.814516 282 37842ft 441kts
28-Oct-18 11:07 44.593764 -88.956005 282 37841ft 441kts
28-Oct-18 11:09 44.619565 -89.152743 282 37864ft 438kts
28-Oct-18 11:09 44.637722 -89.293069 282 37866ft 437kts
28-Oct-18 11:11 44.662831 -89.488634 282 37864ft 436kts
28-Oct-18 11:11 44.680477 -89.628354 282 37880ft 434kts
28-Oct-18 11:12 44.701305 -89.795206 282 37875ft 433kts
28-Oct-18 11:13 44.721959 -89.961839 282 37871ft 433kts
28-Oct-18 11:14 44.742299 -90.128622 283 37876ft 430kts
28-Oct-18 11:15 44.762257 -90.294378 282 37875ft 430kts
28-Oct-18 11:16 44.781961 -90.460100 282 37884ft 429kts
28-Oct-18 11:17 44.801434 -90.625583 282 37852ft 428kts
28-Oct-18 11:18 44.820625 -90.791414 282 37869ft 427kts
28-Oct-18 11:19 44.839522 -90.956442 282 37907ft 426kts
28-Oct-18 11:20 44.858116 -91.121278 282 37943ft 425kts
28-Oct-18 11:21 44.876417 -91.285664 282 37956ft 424kts
28-Oct-18 11:22 44.894218 -91.450100 280 37952ft 425kts
28-Oct-18 11:23 44.883623 -91.617704 266 37960ft 433kts
28-Oct-18 11:24 44.866088 -91.785787 267 37974ft 432kts
28-Oct-18 11:25 44.848445 -91.953514 267 37975ft 432kts
28-Oct-18 11:26 44.830840 -92.120040 268 37978ft 428kts
28-Oct-18 11:27 44.812974 -92.284841 268 37971ft 424kts
28-Oct-18 11:28 44.795012 -92.449068 268 37897ft 423kts
28-Oct-18 11:29 44.776859 -92.612967 268 37907ft 423kts
28-Oct-18 11:30 44.758528 -92.775849 268 37937ft 422kts
28-Oct-18 11:31 44.739999 -92.938854 268 37999ft 421kts
28-Oct-18 11:32 44.721251 -93.101636 268 38012ft 421kts
28-Oct-18 11:33 44.702278 -93.263831 268 38018ft 419kts
28-Oct-18 11:34 44.683313 -93.424353 268 38016ft 416kts
28-Oct-18 11:35 44.664135 -93.583908 268 38021ft 412kts
28-Oct-18 11:36 44.644937 -93.742640 269 38009ft 410kts
28-Oct-18 11:37 44.625640 -93.899715 269 37954ft 408kts
28-Oct-18 11:38 44.606113 -94.056924 269 37959ft 406kts
28-Oct-18 11:39 44.586589 -94.212002 269 38053ft 403kts
28-Oct-18 11:40 44.566939 -94.366871 269 38013ft 403kts
28-Oct-18 11:41 44.547097 -94.521702 269 38022ft 403kts
28-Oct-18 11:42 44.527028 -94.675947 269 38057ft 401kts
28-Oct-18 11:43 44.506847 -94.829966 269 38046ft 401kts
28-Oct-18 11:44 44.486465 -94.983000 269 38095ft 400kts
28-Oct-18 11:45 44.465903 -95.136117 269 38097ft 398kts
28-Oct-18 11:46 44.446358 -95.287914 269 38098ft 395kts
28-Oct-18 11:47 44.426575 -95.438169 269 38102ft 392kts
28-Oct-18 11:48 44.406775 -95.587635 269 38104ft 389kts
28-Oct-18 11:49 44.386955 -95.735801 269 38100ft 387kts
28-Oct-18 11:50 44.366988 -95.883591 269 38091ft 385kts
28-Oct-18 11:51 44.346891 -96.030303 269 38029ft 384kts
28-Oct-18 11:52 44.326752 -96.176561 269 38025ft 383kts
28-Oct-18 11:53 44.306313 -96.322644 269 38041ft 385kts
28-Oct-18 11:54 44.285677 -96.469642 268 38132ft 386kts
28-Oct-18 11:55 44.264704 -96.617226 268 38137ft 387kts
28-Oct-18 11:56 44.243662 -96.763805 268 38133ft 387kts
28-Oct-18 11:57 44.222275 -96.911172 268 38137ft 386kts
28-Oct-18 11:58 44.200847 -97.057739 268 38138ft 386kts
28-Oct-18 11:59 44.179228 -97.203928 267 38150ft 385kts
28-Oct-18 12:00 44.157461 -97.350226 267 38148ft 386kts
28-Oct-18 12:01 44.135440 -97.496431 267 38156ft 385kts
28-Oct-18 12:02 44.113319 -97.642245 267 38155ft 385kts
28-Oct-18 12:03 44.091018 -97.787812 267 38161ft 383kts
28-Oct-18 12:04 44.068544 -97.932799 267 38146ft 383kts
28-Oct-18 12:05 44.045955 -98.077740 267 38121ft 383kts
28-Oct-18 12:06 44.023212 -98.222397 266 38101ft 384kts
28-Oct-18 12:07 44.000183 -98.367255 266 38084ft 384kts
28-Oct-18 12:08 43.977023 -98.511921 266 38083ft 383kts
28-Oct-18 12:09 43.953745 -98.656149 266 38089ft 383kts
28-Oct-18 12:10 43.930225 -98.800074 266 38085ft 383kts
28-Oct-18 12:11 43.906619 -98.944203 266 38088ft 382kts
28-Oct-18 12:12 43.882788 -99.087861 266 38090ft 383kts
28-Oct-18 12:13 43.858704 -99.232059 265 38158ft 384kts
28-Oct-18 12:14 43.834398 -99.376186 265 38186ft 384kts
28-Oct-18 12:15 43.809954 -99.520172 265 38186ft 384kts
28-Oct-18 12:16 43.785361 -99.663947 265 38184ft 384kts
28-Oct-18 12:17 43.760469 -99.807972 265 38185ft 384kts
28-Oct-18 12:18 43.735487 -99.951512 265 38171ft 385kts
28-Oct-18 12:19 43.710234 -100.095330 264 38185ft 385kts
28-Oct-18 12:20 43.684813 -100.239088 264 38189ft 385kts
28-Oct-18 12:21 43.659205 -100.382580 264 38188ft 384kts
28-Oct-18 12:22 43.633510 -100.525855 264 38187ft 383kts
28-Oct-18 12:23 43.607708 -100.668327 264 38173ft 383kts
28-Oct-18 12:24 43.581661 -100.810959 264 38172ft 382kts
28-Oct-18 12:25 43.555630 -100.952672 263 38151ft 381kts
28-Oct-18 12:26 43.529434 -101.094355 263 38147ft 381kts
28-Oct-18 12:27 43.503003 -101.235759 263 38164ft 380kts
28-Oct-18 12:28 43.476530 -101.376587 263 38129ft 380kts
28-Oct-18 12:29 43.449815 -101.517634 263 38101ft 381kts
28-Oct-18 12:30 43.422836 -101.658768 263 38114ft 381kts
28-Oct-18 12:31 43.395802 -101.799432 263 38179ft 381kts
28-Oct-18 12:32 43.368491 -101.940431 262 38175ft 381kts
28-Oct-18 12:33 43.341009 -102.081227 262 38177ft 381kts
28-Oct-18 12:34 43.313394 -102.221928 262 38176ft 381kts
28-Oct-18 12:35 43.285711 -102.362028 262 38173ft 381kts
28-Oct-18 12:36 43.257639 -102.502686 262 38173ft 380kts
28-Oct-18 12:37 43.229593 -102.642505 261 38172ft 380kts
28-Oct-18 12:38 43.201408 -102.781920 261 38161ft 379kts
28-Oct-18 12:39 43.173149 -102.920808 261 38168ft 378kts
28-Oct-18 12:40 43.144689 -103.059760 261 38137ft 379kts
28-Oct-18 12:41 43.115971 -103.199018 261 38137ft 379kts
28-Oct-18 12:42 43.087229 -103.337498 261 38146ft 379kts
28-Oct-18 12:43 43.058242 -103.476064 260 38162ft 379kts
28-Oct-18 12:44 43.029074 -103.614659 260 38163ft 379kts
28-Oct-18 12:45 42.999818 -103.752725 260 38164ft 379kts
28-Oct-18 12:46 42.970357 -103.891013 260 38165ft 378kts
28-Oct-18 12:47 42.940796 -104.028569 260 38161ft 378kts
28-Oct-18 12:48 42.911098 -104.166030 259 38164ft 377kts
28-Oct-18 12:49 42.881197 -104.303442 259 38158ft 377kts
28-Oct-18 12:50 42.851113 -104.440892 259 38145ft 377kts
28-Oct-18 12:51 42.820987 -104.577592 259 38150ft 377kts
28-Oct-18 12:52 42.790614 -104.714565 259 38138ft 377kts
28-Oct-18 12:53 42.760094 -104.851340 258 38133ft 378kts
28-Oct-18 12:54 42.729420 -104.988021 258 38154ft 377kts
28-Oct-18 12:55 42.698587 -105.124600 258 38125ft 378kts
28-Oct-18 12:56 42.671207 -105.261585 265 38141ft 373kts
28-Oct-18 12:57 42.655881 -105.400929 265 38121ft 373kts
28-Oct-18 12:58 42.639824 -105.540168 264 38144ft 373kts
28-Oct-18 12:59 42.623639 -105.679473 264 38105ft 374kts
28-Oct-18 13:00 42.607336 -105.818981 264 38146ft 373kts
28-Oct-18 13:02 42.590827 -105.958204 264 38161ft 373kts
28-Oct-18 13:03 42.574189 -106.097404 263 38165ft 374kts
28-Oct-18 13:04 42.557349 -106.236651 263 38175ft 374kts
28-Oct-18 13:05 42.540368 -106.375687 263 38174ft 374kts
28-Oct-18 13:06 42.523144 -106.514760 263 38184ft 374kts
28-Oct-18 13:07 42.505862 -106.653634 263 38194ft 373kts
28-Oct-18 13:08 42.488353 -106.792202 263 38185ft 372kts
28-Oct-18 13:09 42.470833 -106.930116 263 38162ft 371kts
28-Oct-18 13:10 42.453107 -107.068217 262 38130ft 371kts
28-Oct-18 13:11 42.435194 -107.205758 262 38136ft 370kts
28-Oct-18 13:12 42.417149 -107.343345 262 38139ft 371kts
28-Oct-18 13:13 42.399006 -107.480344 262 38175ft 370kts
28-Oct-18 13:14 42.380659 -107.617786 262 38188ft 371kts
28-Oct-18 13:15 42.362178 -107.754829 262 38205ft 371kts
28-Oct-18 13:16 42.343390 -107.892656 261 38207ft 372kts
28-Oct-18 13:17 42.324573 -108.029668 261 38200ft 372kts
28-Oct-18 13:17 42.308597 -108.144624 261 38184ft 371kts
28-Oct-18 13:19 42.286235 -108.304629 261 38174ft 371kts
28-Oct-18 13:19 42.270193 -108.418325 261 38157ft 371kts
28-Oct-18 13:21 42.247416 -108.578036 261 38141ft 371kts
28-Oct-18 13:21 42.230971 -108.692003 261 38099ft 372kts
28-Oct-18 13:22 42.211204 -108.828796 260 38121ft 372kts
28-Oct-18 13:23 42.191141 -108.965983 260 38169ft 373kts
28-Oct-18 13:24 42.170927 -109.103161 260 38222ft 373kts
28-Oct-18 13:25 42.150414 -109.240622 260 38233ft 373kts
28-Oct-18 13:26 42.129855 -109.377892 260 38236ft 374kts
28-Oct-18 13:27 42.109014 -109.515390 259 38240ft 374kts
28-Oct-18 13:28 42.088025 -109.652738 259 38245ft 375kts
28-Oct-18 13:29 42.066855 -109.790354 259 38251ft 375kts
28-Oct-18 13:30 42.045672 -109.927477 259 38263ft 375kts
28-Oct-18 13:31 42.024219 -110.063548 259 38269ft 376kts
28-Oct-18 13:32 42.002407 -110.202623 259 38268ft 376kts
28-Oct-18 13:33 41.980538 -110.339921 259 38256ft 376kts
28-Oct-18 13:34 41.958348 -110.477490 258 38263ft 376kts
28-Oct-18 13:35 41.936234 -110.615172 258 38253ft 377kts
28-Oct-18 13:36 41.913595 -110.753187 258 38248ft 378kts
28-Oct-18 13:37 41.890983 -110.890968 258 38244ft 379kts
28-Oct-18 13:38 41.868107 -111.029263 257 38266ft 379kts
28-Oct-18 13:39 41.845044 -111.167575 257 38225ft 380kts
28-Oct-18 13:40 41.821829 -111.305377 257 38223ft 378kts
28-Oct-18 13:41 41.798423 -111.442848 257 38207ft 378kts
28-Oct-18 13:42 41.774991 -111.580072 257 38189ft 377kts
28-Oct-18 13:43 41.751439 -111.716867 257 38161ft 377kts
28-Oct-18 13:44 41.727825 -111.853302 257 38158ft 376kts
28-Oct-18 13:45 41.703968 -111.989388 257 38119ft 376kts
28-Oct-18 13:46 41.679912 -112.125968 256 38103ft 377kts
28-Oct-18 13:47 41.655706 -112.262120 256 38172ft 376kts
28-Oct-18 13:48 41.631463 -112.398341 256 38169ft 377kts
28-Oct-18 13:49 41.606853 -112.534443 256 38171ft 378kts
28-Oct-18 13:50 41.582112 -112.670957 256 38184ft 378kts
28-Oct-18 13:51 41.557081 -112.807734 256 38181ft 379kts
28-Oct-18 13:52 41.531877 -112.944665 255 38181ft 379kts
28-Oct-18 13:53 41.506473 -113.081442 255 38180ft 380kts
28-Oct-18 13:54 41.481031 -113.218186 255 38180ft 379kts
28-Oct-18 13:55 41.455344 -113.354465 255 38176ft 378kts
28-Oct-18 13:56 41.429624 -113.490520 255 38161ft 378kts
28-Oct-18 13:57 41.403694 -113.626463 255 38136ft 378kts
28-Oct-18 13:58 41.377586 -113.762063 255 38153ft 377kts
28-Oct-18 13:59 41.349031 -113.896468 252 38131ft 377kts
28-Oct-18 14:00 41.316753 -114.029186 251 38086ft 378kts
28-Oct-18 14:01 41.284363 -114.162094 251 38157ft 377kts
28-Oct-18 14:02 41.251955 -114.294569 251 38179ft 377kts
28-Oct-18 14:03 41.219032 -114.427445 251 38182ft 378kts
28-Oct-18 14:04 41.186100 -114.560233 251 38182ft 379kts
28-Oct-18 14:05 41.153001 -114.692979 251 38185ft 380kts
28-Oct-18 14:06 41.119485 -114.826258 251 38184ft 380kts
28-Oct-18 14:07 41.086161 -114.958932 251 38163ft 380kts
28-Oct-18 14:08 41.052284 -115.092030 251 38141ft 380kts
28-Oct-18 14:09 41.018466 -115.224467 250 38126ft 380kts
28-Oct-18 14:10 40.984553 -115.357335 250 38110ft 380kts
28-Oct-18 14:11 40.950118 -115.489824 250 38093ft 380kts
28-Oct-18 14:12 40.915866 -115.622297 250 38086ft 380kts
28-Oct-18 14:13 40.881519 -115.754220 250 38084ft 379kts
28-Oct-18 14:14 40.847269 -115.885019 250 38085ft 374kts
28-Oct-18 14:15 40.812838 -116.015352 250 38123ft 382kts
28-Oct-18 14:16 40.777823 -116.147568 249 38134ft 381kts
28-Oct-18 14:17 40.742663 -116.279579 249 38141ft 381kts
28-Oct-18 14:18 40.707297 -116.411648 249 38148ft 381kts
28-Oct-18 14:19 40.671795 -116.543662 249 38158ft 381kts
28-Oct-18 14:20 40.636183 -116.675325 249 38169ft 381kts
28-Oct-18 14:21 40.600283 -116.806486 249 38173ft 381kts
28-Oct-18 14:22 40.564386 -116.938006 249 38176ft 382kts
28-Oct-18 14:23 40.530246 -117.070517 250 38175ft 382kts
28-Oct-18 14:24 40.495538 -117.202485 250 38173ft 382kts
28-Oct-18 14:25 40.460924 -117.334476 249 38171ft 382kts
28-Oct-18 14:26 40.426069 -117.466081 250 38166ft 383kts
28-Oct-18 14:27 40.391058 -117.598209 249 38143ft 383kts
28-Oct-18 14:28 40.355734 -117.730495 249 38128ft 384kts
28-Oct-18 14:29 40.320189 -117.862823 249 38113ft 384kts
28-Oct-18 14:30 40.284714 -117.994522 249 38116ft 384kts
28-Oct-18 14:31 40.248826 -118.126554 249 38120ft 384kts
28-Oct-18 14:32 40.213009 -118.258376 249 38125ft 384kts
28-Oct-18 14:33 40.176632 -118.390057 249 38131ft 384kts
28-Oct-18 14:34 40.140716 -118.521376 249 38145ft 384kts
28-Oct-18 14:35 40.090102 -118.643446 235 38145ft 384kts
28-Oct-18 14:36 40.027842 -118.756730 236 38143ft 383kts
28-Oct-18 14:37 39.966133 -118.870141 235 38147ft 384kts
28-Oct-18 14:38 39.904031 -118.983470 235 38063ft 383kts
28-Oct-18 14:39 39.842941 -119.094738 235 37525ft 370kts
28-Oct-18 14:40 39.781387 -119.206414 235 32896ft 399kts
28-Oct-18 14:41 39.718242 -119.320557 235 27580ft 395kts
28-Oct-18 14:42 39.651764 -119.440195 235 23939ft 412kts
28-Oct-18 14:43 39.585741 -119.558614 235 20362ft 401kts
28-Oct-18 14:44 39.516890 -119.668927 221 18933ft 379kts
28-Oct-18 14:45 39.431783 -119.744478 217 13827ft 367kts
28-Oct-18 14:46 39.350457 -119.817051 216 11709ft 320kts
28-Oct-18 14:47 39.288240 -119.871587 213 11943ft 234kts
28-Oct-18 14:48 39.233148 -119.892755 201 11931ft 184kts
28-Oct-18 14:49 39.187039 -119.905829 201 11311ft 178kts
28-Oct-18 14:50 39.141350 -119.920005 197 10305ft 170kts
28-Oct-18 14:51 39.101786 -119.932917 194 10132ft 176kts
28-Oct-18 14:52 39.059847 -119.945289 190 9458ft 135kts
28-Oct-18 14:53 39.023115 -119.955932 196 8564ft 135kts
28-Oct-18 14:54 38.986796 -119.968066 194 7896ft 134kts
28-Oct-18 14:55 38.950602 -119.978798 193 7360ft 132kts
28-Oct-18 14:56 38.914905 -119.989169 192 6520ft 130kts
28-Oct-18 14:57 38.890339 -119.996389 193 6273ft 31kts
28-Oct-18 14:58 38.882680 -119.998624 194 6273ft 8kts
28-Oct-18 14:59 38.883925 -119.999297 12 6273ft 10kts
28-Oct-18 15:00 38.887682 -119.998199 13 6273ft 16kts
28-Oct-18 15:01 38.892073 -119.996905 12 6273ft 8kts
28-Oct-18 15:02 38.892534 -119.998159 334 6273ft 0kts
28-Oct-18 15:03 38.892674 -119.998061 28 6273ft 0kts
28-Oct-18 15:04 38.892674 -119.998061 28 6273ft 0kts
28-Oct-18 15:05 38.892674 -119.998061 28 6273ft 0kts
28-Oct-18 15:06 38.892674 -119.998061 28 6273ft 0kts
28-Oct-18 15:07 38.892674 -119.998061 28 6273ft 0kts
28-Oct-18 15:08 38.892674 -119.998061 28 6273ft 0kts
28-Oct-18 15:09 38.892674 -119.998061 28 6273ft 0kts
28-Oct-18 15:10 38.892674 -119.998061 28 6273ft 0kts
28-Oct-18 15:11 38.892674 -119.998061 28 6273ft 0kts

Navigation Log

Ident Type
Flight plan parsing failed, navigation log unavailable